Time,TemperatureF,DewpointF,PressureIn,WindDirection,WindDirectionDegrees,WindSpeedMPH,WindSpeedGustMPH,Humidity,HourlyPrecipIn,Conditions,Clouds,dailyrainin,SoftwareType,DateUTC
2013-11-03 00:01:00,37.2,31.0,29.90,North,355,9.0,13.0,78,0.00,,,0.05,Wunderground v.1.15,2013-11-03 04:01:00,
2013-11-03 00:02:00,37.2,31.0,29.90,NNW,333,5.0,13.0,78,0.00,,,0.05,Wunderground v.1.15,2013-11-03 04:02:00,
2013-11-03 00:03:00,37.2,31.0,29.90,NNE,17,17.0,17.0,78,0.00,,,0.05,Wunderground v.1.15,2013-11-03 04:03:00,
2013-11-03 00:06:00,37.0,30.5,29.90,North,355,7.0,17.0,77,0.00,,,0.05,Wunderground v.1.15,2013-11-03 04:06:00,
2013-11-03 00:08:00,37.0,30.1,29.90,NNW,348,5.0,17.0,76,0.00,,,0.05,Wunderground v.1.15,2013-11-03 04:08:00,
2013-11-03 00:10:00,37.0,30.5,29.90,North,360,9.0,9.0,77,0.00,,,0.05,Wunderground v.1.15,2013-11-03 04:10:00,
2013-11-03 00:15:00,36.8,30.3,29.90,NNW,343,10.0,10.0,77,0.00,,,0.05,Wunderground v.1.15,2013-11-03 04:15:00,
2013-11-03 00:21:00,36.5,29.7,29.90,NNW,342,5.0,7.0,76,0.00,,,0.05,Wunderground v.1.15,2013-11-03 04:21:00,
2013-11-03 00:26:00,36.3,28.8,29.90,North,355,6.0,14.0,74,0.00,,,0.05,Wunderground v.1.15,2013-11-03 04:26:00,
2013-11-03 00:31:00,36.2,28.4,29.92,NNW,336,5.0,12.0,73,0.00,,,0.05,Wunderground v.1.15,2013-11-03 04:31:00,
2013-11-03 00:36:00,36.2,28.4,29.92,NNW,339,9.0,14.0,73,0.00,,,0.05,Wunderground v.1.15,2013-11-03 04:36:00,
2013-11-03 00:41:00,36.0,27.8,29.92,North,351,5.0,10.0,72,0.00,,,0.05,Wunderground v.1.15,2013-11-03 04:41:00,
2013-11-03 00:46:00,35.9,28.1,29.92,North,360,11.0,11.0,73,0.00,,,0.05,Wunderground v.1.15,2013-11-03 04:46:00,
2013-11-03 00:51:00,35.9,27.4,29.92,North,355,12.0,12.0,71,0.00,,,0.05,Wunderground v.1.15,2013-11-03 04:51:00,
2013-11-03 00:56:00,35.9,27.4,29.92,North,360,11.0,17.0,71,0.00,,,0.05,Wunderground v.1.15,2013-11-03 04:56:00,
2013-11-03 01:02:00,35.8,27.0,29.94,North,9,13.0,15.0,70,0.00,,,0.05,Wunderground v.1.15,2013-11-03 05:02:00,
2013-11-03 01:08:00,35.8,27.0,29.94,North,355,7.0,15.0,70,0.00,,,0.05,Wunderground v.1.15,2013-11-03 05:08:00,
2013-11-03 01:14:00,35.6,27.1,29.94,NNE,32,16.0,18.0,71,0.00,,,0.05,Wunderground v.1.15,2013-11-03 05:14:00,
2013-11-03 01:20:00,35.6,26.8,29.94,North,5,10.0,12.0,70,0.00,,,0.05,Wunderground v.1.15,2013-11-03 05:20:00,
2013-11-03 01:25:00,35.5,27.0,29.94,North,360,6.0,13.0,71,0.00,,,0.05,Wunderground v.1.15,2013-11-03 05:25:00,
2013-11-03 01:31:00,35.3,26.8,29.95,NNE,27,11.0,13.0,71,0.00,,,0.05,Wunderground v.1.15,2013-11-03 05:31:00,
2013-11-03 01:36:00,35.3,26.8,29.95,NNE,22,7.0,14.0,71,0.00,,,0.05,Wunderground v.1.15,2013-11-03 05:36:00,
2013-11-03 01:42:00,35.3,26.8,29.95,NE,36,15.0,15.0,71,0.00,,,0.05,Wunderground v.1.15,2013-11-03 05:42:00,
2013-11-03 01:47:00,35.2,26.4,29.95,NNE,19,9.0,15.0,70,0.00,,,0.05,Wunderground v.1.15,2013-11-03 05:47:00,
2013-11-03 01:53:00,35.2,26.4,29.95,North,10,12.0,15.0,70,0.00,,,0.05,Wunderground v.1.15,2013-11-03 05:53:00,
2013-11-03 01:58:00,35.2,26.4,29.95,NNE,19,4.0,16.0,70,0.00,,,0.05,Wunderground v.1.15,2013-11-03 05:58:00,
2013-11-03 01:04:00,35.0,26.2,29.97,NNE,15,9.0,13.0,70,0.00,,,0.05,Wunderground v.1.15,2013-11-03 06:04:00,
2013-11-03 01:09:00,35.0,26.5,29.97,North,5,4.0,13.0,71,0.00,,,0.05,Wunderground v.1.15,2013-11-03 06:09:00,
2013-11-03 01:14:00,34.9,25.8,29.97,NNW,342,10.0,11.0,69,0.00,,,0.05,Wunderground v.1.15,2013-11-03 06:14:00,
2013-11-03 01:20:00,34.9,25.8,29.97,North,5,12.0,12.0,69,0.00,,,0.05,Wunderground v.1.15,2013-11-03 06:20:00,
2013-11-03 01:26:00,34.7,24.9,29.97,NNE,13,9.0,12.0,67,0.00,,,0.05,Wunderground v.1.15,2013-11-03 06:26:00,
2013-11-03 01:31:00,34.6,24.8,29.98,North,5,7.0,8.0,67,0.00,,,0.05,Wunderground v.1.15,2013-11-03 06:31:00,
2013-11-03 01:37:00,34.4,24.2,29.98,NNE,27,10.0,13.0,66,0.00,,,0.05,Wunderground v.1.15,2013-11-03 06:37:00,
2013-11-03 01:43:00,34.4,23.8,29.98,North,360,7.0,11.0,65,0.00,,,0.05,Wunderground v.1.15,2013-11-03 06:43:00,
2013-11-03 01:48:00,34.3,24.1,29.98,NNE,25,12.0,12.0,66,0.00,,,0.05,Wunderground v.1.15,2013-11-03 06:48:00,
2013-11-03 01:54:00,34.3,23.7,29.98,NNW,344,7.0,13.0,65,0.00,,,0.05,Wunderground v.1.15,2013-11-03 06:54:00,
2013-11-03 02:00:00,34.1,23.2,29.99,NNW,342,14.0,14.0,64,0.00,,,0.05,Wunderground v.1.15,2013-11-03 07:00:00,
2013-11-03 02:05:00,34.0,24.2,29.99,NE,40,13.0,14.0,67,0.00,,,0.05,Wunderground v.1.15,2013-11-03 07:05:00,
2013-11-03 02:10:00,34.0,23.8,29.99,North,5,4.0,10.0,66,0.00,,,0.05,Wunderground v.1.15,2013-11-03 07:10:00,
2013-11-03 02:15:00,34.0,24.2,30.00,North,349,10.0,15.0,67,0.00,,,0.05,Wunderground v.1.15,2013-11-03 07:15:00,
2013-11-03 02:20:00,33.8,22.9,30.00,North,360,4.0,11.0,64,0.00,,,0.05,Wunderground v.1.15,2013-11-03 07:20:00,
2013-11-03 02:25:00,33.7,22.1,30.00,NNW,332,6.0,20.0,62,0.00,,,0.05,Wunderground v.1.15,2013-11-03 07:25:00,
2013-11-03 02:30:00,33.7,21.7,30.00,NNE,14,5.0,14.0,61,0.00,,,0.05,Wunderground v.1.15,2013-11-03 07:30:00,
2013-11-03 02:35:00,33.5,21.5,30.00,North,10,13.0,19.0,61,0.00,,,0.05,Wunderground v.1.15,2013-11-03 07:35:00,
2013-11-03 02:40:00,33.4,21.4,30.00,North,355,10.0,13.0,61,0.00,,,0.05,Wunderground v.1.15,2013-11-03 07:40:00,
2013-11-03 02:45:00,33.4,20.6,30.01,NNE,13,7.0,16.0,59,0.00,,,0.05,Wunderground v.1.15,2013-11-03 07:45:00,
2013-11-03 02:50:00,33.2,20.8,30.01,North,355,6.0,9.0,60,0.00,,,0.05,Wunderground v.1.15,2013-11-03 07:50:00,
2013-11-03 02:55:00,33.1,21.1,30.01,North,5,9.0,14.0,61,0.00,,,0.05,Wunderground v.1.15,2013-11-03 07:55:00,
2013-11-03 03:00:00,33.1,21.9,30.02,NNE,15,10.0,10.0,63,0.00,,,0.05,Wunderground v.1.15,2013-11-03 08:00:00,
2013-11-03 03:05:00,33.1,22.2,30.02,NNW,348,7.0,20.0,64,0.00,,,0.05,Wunderground v.1.15,2013-11-03 08:05:00,
2013-11-03 03:10:00,33.1,22.2,30.02,North,11,9.0,9.0,64,0.00,,,0.05,Wunderground v.1.15,2013-11-03 08:10:00,
2013-11-03 03:15:00,32.9,22.0,30.03,North,5,14.0,16.0,64,0.00,,,0.05,Wunderground v.1.15,2013-11-03 08:15:00,
2013-11-03 03:20:00,32.9,22.0,30.03,NNE,12,9.0,12.0,64,0.00,,,0.05,Wunderground v.1.15,2013-11-03 08:20:00,
2013-11-03 03:25:00,32.9,22.0,30.03,NNW,348,6.0,13.0,64,0.00,,,0.05,Wunderground v.1.15,2013-11-03 08:25:00,
2013-11-03 03:30:00,32.8,22.0,30.03,NNW,342,7.0,16.0,64,0.00,,,0.05,Wunderground v.1.15,2013-11-03 08:30:00,
2013-11-03 03:35:00,32.7,21.5,30.03,North,5,4.0,16.0,63,0.00,,,0.05,Wunderground v.1.15,2013-11-03 08:35:00,
2013-11-03 03:40:00,32.5,20.9,30.03,North,5,10.0,13.0,62,0.00,,,0.05,Wunderground v.1.15,2013-11-03 08:40:00,
2013-11-03 03:45:00,32.5,20.5,30.05,North,355,11.0,14.0,61,0.00,,,0.05,Wunderground v.1.15,2013-11-03 08:45:00,
2013-11-03 03:50:00,32.5,20.1,30.05,North,5,4.0,9.0,60,0.00,,,0.05,Wunderground v.1.15,2013-11-03 08:50:00,
2013-11-03 03:55:00,32.4,20.4,30.05,North,360,9.0,14.0,61,0.00,,,0.05,Wunderground v.1.15,2013-11-03 08:55:00,
2013-11-03 04:00:00,32.2,19.9,30.06,North,9,6.0,12.0,60,0.00,,,0.05,Wunderground v.1.15,2013-11-03 09:00:00,
2013-11-03 04:06:00,32.2,19.9,30.06,North,360,6.0,16.0,60,0.00,,,0.05,Wunderground v.1.15,2013-11-03 09:06:00,
2013-11-03 04:11:00,32.1,20.2,30.06,NNW,343,6.0,12.0,61,0.00,,,0.05,Wunderground v.1.15,2013-11-03 09:11:00,
2013-11-03 04:16:00,31.9,20.0,30.07,North,5,11.0,17.0,61,0.00,,,0.05,Wunderground v.1.15,2013-11-03 09:16:00,
2013-11-03 04:21:00,31.8,20.3,30.07,North,360,11.0,14.0,62,0.00,,,0.05,Wunderground v.1.15,2013-11-03 09:21:00,
2013-11-03 04:26:00,31.8,19.1,30.07,NNE,28,13.0,19.0,59,0.00,,,0.05,Wunderground v.1.15,2013-11-03 09:26:00,
2013-11-03 04:31:00,31.6,19.3,30.08,NNW,348,4.0,12.0,60,0.00,,,0.05,Wunderground v.1.15,2013-11-03 09:31:00,
2013-11-03 04:36:00,31.6,18.9,30.08,North,5,16.0,16.0,59,0.00,,,0.05,Wunderground v.1.15,2013-11-03 09:36:00,
2013-11-03 04:41:00,31.5,19.6,30.08,NNE,12,9.0,12.0,61,0.00,,,0.05,Wunderground v.1.15,2013-11-03 09:41:00,
2013-11-03 04:46:00,31.5,18.8,30.09,NNW,338,4.0,13.0,59,0.00,,,0.00,Wunderground v.1.15,2013-11-03 09:46:00,
2013-11-03 04:51:00,31.3,18.6,30.09,North,360,8.0,10.0,59,0.00,,,0.00,Wunderground v.1.15,2013-11-03 09:51:00,
2013-11-03 04:56:00,31.3,18.6,30.09,North,360,7.0,13.0,59,0.00,,,0.00,Wunderground v.1.15,2013-11-03 09:56:00,
2013-11-03 05:01:00,31.3,19.0,30.10,North,360,7.0,9.0,60,0.00,,,0.00,Wunderground v.1.15,2013-11-03 10:01:00,
2013-11-03 05:06:00,31.3,19.4,30.10,North,5,8.0,13.0,61,0.00,,,0.00,Wunderground v.1.15,2013-11-03 10:06:00,
2013-11-03 05:11:00,31.2,18.9,30.10,NNE,22,7.0,11.0,60,0.00,,,0.00,Wunderground v.1.15,2013-11-03 10:11:00,
2013-11-03 05:16:00,31.2,19.3,30.11,NNW,348,7.0,13.0,61,0.00,,,0.00,Wunderground v.1.15,2013-11-03 10:16:00,
2013-11-03 05:21:00,31.2,19.3,30.11,NE,45,13.0,15.0,61,0.00,,,0.00,Wunderground v.1.15,2013-11-03 10:21:00,
2013-11-03 05:26:00,31.2,19.3,30.11,NNE,28,5.0,15.0,61,0.00,,,0.00,Wunderground v.1.15,2013-11-03 10:26:00,
2013-11-03 05:31:00,31.2,19.3,30.11,North,360,11.0,14.0,61,0.00,,,0.00,Wunderground v.1.15,2013-11-03 10:31:00,
2013-11-03 05:36:00,31.0,19.1,30.11,NNE,13,5.0,14.0,61,0.00,,,0.00,Wunderground v.1.15,2013-11-03 10:36:00,
2013-11-03 05:41:00,31.0,19.5,30.11,North,9,11.0,11.0,62,0.00,,,0.00,Wunderground v.1.15,2013-11-03 10:41:00,
2013-11-03 05:46:00,30.9,19.8,30.12,North,355,9.0,12.0,63,0.00,,,0.00,Wunderground v.1.15,2013-11-03 10:46:00,
2013-11-03 05:51:00,30.9,19.4,30.12,NNE,32,4.0,12.0,62,0.00,,,0.00,Wunderground v.1.15,2013-11-03 10:51:00,
2013-11-03 05:56:00,30.9,19.4,30.12,NNE,24,7.0,12.0,62,0.00,,,0.00,Wunderground v.1.15,2013-11-03 10:56:00,
2013-11-03 06:01:00,30.7,20.0,30.14,North,5,2.0,9.0,64,0.00,,,0.00,Wunderground v.1.15,2013-11-03 11:01:00,
2013-11-03 06:06:00,30.7,20.0,30.14,North,10,4.0,10.0,64,0.00,,,0.00,Wunderground v.1.15,2013-11-03 11:06:00,
2013-11-03 06:11:00,30.6,19.9,30.14,North,5,2.0,7.0,64,0.00,,,0.00,Wunderground v.1.15,2013-11-03 11:11:00,
2013-11-03 06:16:00,30.6,19.9,30.14,NNE,26,4.0,9.0,64,0.00,,,0.00,Wunderground v.1.15,2013-11-03 11:16:00,
2013-11-03 06:21:00,30.6,19.9,30.14,NE,45,3.0,10.0,64,0.00,,,0.00,Wunderground v.1.15,2013-11-03 11:21:00,
2013-11-03 06:26:00,30.4,19.7,30.14,NE,34,4.0,10.0,64,0.00,,,0.00,Wunderground v.1.15,2013-11-03 11:26:00,
2013-11-03 06:31:00,30.4,20.0,30.15,NNE,26,10.0,12.0,65,0.00,,,0.00,Wunderground v.1.15,2013-11-03 11:31:00,
2013-11-03 06:36:00,30.3,19.9,30.15,NNE,27,5.0,13.0,65,0.00,,,0.00,Wunderground v.1.15,2013-11-03 11:36:00,
2013-11-03 06:41:00,30.3,20.3,30.15,NNE,21,5.0,8.0,66,0.00,,,0.00,Wunderground v.1.15,2013-11-03 11:41:00,
2013-11-03 06:46:00,30.3,19.9,30.15,North,11,10.0,11.0,65,0.00,,,0.00,Wunderground v.1.15,2013-11-03 11:46:00,
2013-11-03 06:51:00,30.3,19.6,30.15,NE,42,9.0,17.0,64,0.00,,,0.00,Wunderground v.1.15,2013-11-03 11:51:00,
2013-11-03 06:56:00,30.3,19.9,30.15,North,5,11.0,17.0,65,0.00,,,0.00,Wunderground v.1.15,2013-11-03 11:56:00,
2013-11-03 07:01:00,30.3,20.6,30.17,NNE,17,9.0,11.0,67,0.00,,,0.00,Wunderground v.1.15,2013-11-03 12:01:00,
2013-11-03 07:07:00,30.3,20.3,30.17,NNE,15,4.0,11.0,66,0.00,,,0.00,Wunderground v.1.15,2013-11-03 12:07:00,
2013-11-03 07:12:00,30.4,20.7,30.17,NNE,13,3.0,10.0,67,0.00,,,0.00,Wunderground v.1.15,2013-11-03 12:12:00,
2013-11-03 07:17:00,30.7,20.7,30.17,NNE,26,4.0,13.0,66,0.00,,,0.00,Wunderground v.1.15,2013-11-03 12:17:00,
2013-11-03 07:22:00,31.0,20.2,30.17,North,360,3.0,10.0,64,0.00,,,0.00,Wunderground v.1.15,2013-11-03 12:22:00,
2013-11-03 07:27:00,31.2,20.8,30.17,North,9,13.0,15.0,65,0.00,,,0.00,Wunderground v.1.15,2013-11-03 12:27:00,
2013-11-03 07:32:00,31.5,20.7,30.18,North,360,4.0,14.0,64,0.00,,,0.00,Wunderground v.1.15,2013-11-03 12:32:00,
2013-11-03 07:37:00,31.5,20.7,30.18,North,350,5.0,14.0,64,0.00,,,0.00,Wunderground v.1.15,2013-11-03 12:37:00,
2013-11-03 07:42:00,31.5,21.1,30.18,NNE,26,13.0,14.0,65,0.00,,,0.00,Wunderground v.1.15,2013-11-03 12:42:00,
2013-11-03 07:47:00,31.6,21.2,30.19,North,5,11.0,15.0,65,0.00,,,0.00,Wunderground v.1.15,2013-11-03 12:47:00,
2013-11-03 07:52:00,31.8,21.0,30.19,NNE,22,10.0,14.0,64,0.00,,,0.00,Wunderground v.1.15,2013-11-03 12:52:00,
2013-11-03 07:57:00,32.1,21.3,30.19,NNE,32,10.0,15.0,64,0.00,,,0.00,Wunderground v.1.15,2013-11-03 12:57:00,
2013-11-03 08:02:00,32.2,21.4,30.20,NNE,19,12.0,16.0,64,0.00,,,0.00,Wunderground v.1.15,2013-11-03 13:02:00,
2013-11-03 08:07:00,32.5,21.3,30.20,NE,44,15.0,17.0,63,0.00,,,0.00,Wunderground v.1.15,2013-11-03 13:07:00,
2013-11-03 08:12:00,32.7,21.9,30.20,NE,42,10.0,18.0,64,0.00,,,0.00,Wunderground v.1.15,2013-11-03 13:12:00,
2013-11-03 08:17:00,32.7,21.5,30.21,North,355,9.0,18.0,63,0.00,,,0.00,Wunderground v.1.15,2013-11-03 13:17:00,
2013-11-03 08:22:00,32.5,20.5,30.21,North,360,6.0,18.0,61,0.00,,,0.00,Wunderground v.1.15,2013-11-03 13:22:00,
2013-11-03 08:27:00,32.5,21.3,30.21,NNE,24,3.0,18.0,63,0.00,,,0.00,Wunderground v.1.15,2013-11-03 13:27:00,
2013-11-03 08:32:00,32.7,21.1,30.22,North,360,9.0,15.0,62,0.00,,,0.00,Wunderground v.1.15,2013-11-03 13:32:00,
2013-11-03 08:37:00,32.7,20.7,30.22,NNE,13,11.0,17.0,61,0.00,,,0.00,Wunderground v.1.15,2013-11-03 13:37:00,
2013-11-03 08:42:00,32.8,20.8,30.22,North,355,10.0,16.0,61,0.00,,,0.00,Wunderground v.1.15,2013-11-03 13:42:00,
2013-11-03 08:47:00,32.8,20.4,30.22,NNE,33,12.0,17.0,60,0.00,,,0.00,Wunderground v.1.15,2013-11-03 13:47:00,
2013-11-03 08:52:00,32.8,20.4,30.22,NNE,22,6.0,17.0,60,0.00,,,0.00,Wunderground v.1.15,2013-11-03 13:52:00,
2013-11-03 08:57:00,32.8,20.0,30.22,NE,41,12.0,18.0,59,0.00,,,0.00,Wunderground v.1.15,2013-11-03 13:57:00,
2013-11-03 09:02:00,33.1,20.3,30.23,NNW,338,6.0,21.0,59,0.00,,,0.00,Wunderground v.1.15,2013-11-03 14:02:00,
2013-11-03 09:07:00,33.1,21.5,30.23,NNE,28,13.0,21.0,62,0.00,,,0.00,Wunderground v.1.15,2013-11-03 14:07:00,
2013-11-03 09:12:00,32.9,20.5,30.23,NE,55,14.0,22.0,60,0.00,,,0.00,Wunderground v.1.15,2013-11-03 14:12:00,
2013-11-03 09:17:00,33.2,21.6,30.23,NNW,346,12.0,22.0,62,0.00,,,0.00,Wunderground v.1.15,2013-11-03 14:17:00,
2013-11-03 09:22:00,33.4,21.4,30.23,NNW,333,9.0,18.0,61,0.00,,,0.00,Wunderground v.1.15,2013-11-03 14:22:00,
2013-11-03 09:27:00,33.2,21.6,30.23,NE,35,14.0,18.0,62,0.00,,,0.00,Wunderground v.1.15,2013-11-03 14:27:00,
2013-11-03 09:32:00,33.2,22.0,30.23,NNE,19,9.0,14.0,63,0.00,,,0.00,Wunderground v.1.15,2013-11-03 14:32:00,
2013-11-03 09:37:00,33.2,21.2,30.23,North,5,13.0,21.0,61,0.00,,,0.00,Wunderground v.1.15,2013-11-03 14:37:00,
2013-11-03 09:42:00,33.8,22.1,30.23,North,5,12.0,14.0,62,0.00,,,0.00,Wunderground v.1.15,2013-11-03 14:42:00,
2013-11-03 09:47:00,33.7,21.7,30.23,NNE,12,11.0,17.0,61,0.00,,,0.00,Wunderground v.1.15,2013-11-03 14:47:00,
2013-11-03 09:52:00,34.0,22.3,30.23,North,5,9.0,15.0,62,0.00,,,0.00,Wunderground v.1.15,2013-11-03 14:52:00,
2013-11-03 09:57:00,34.3,21.4,30.23,NNE,19,13.0,17.0,59,0.00,,,0.00,Wunderground v.1.15,2013-11-03 14:57:00,
2013-11-03 10:02:00,34.7,23.4,30.23,North,5,7.0,10.0,63,0.00,,,0.00,Wunderground v.1.15,2013-11-03 15:02:00,
2013-11-03 10:07:00,34.7,21.8,30.23,NNW,338,13.0,19.0,59,0.00,,,0.00,Wunderground v.1.15,2013-11-03 15:07:00,
2013-11-03 10:12:00,34.7,21.8,30.23,NNW,334,0.0,13.0,59,0.00,,,0.00,Wunderground v.1.15,2013-11-03 15:12:00,
2013-11-03 10:17:00,35.8,22.0,30.24,NW,321,6.0,18.0,57,0.00,,,0.00,Wunderground v.1.15,2013-11-03 15:17:00,
2013-11-03 10:23:00,35.9,22.1,30.24,NNW,341,4.0,16.0,57,0.00,,,0.00,Wunderground v.1.15,2013-11-03 15:23:00,
2013-11-03 10:28:00,36.2,22.0,30.24,North,5,9.0,19.0,56,0.00,,,0.00,Wunderground v.1.15,2013-11-03 15:28:00,
2013-11-03 10:33:00,35.2,21.5,30.25,North,5,16.0,17.0,57,0.00,,,0.00,Wunderground v.1.15,2013-11-03 15:33:00,
2013-11-03 10:38:00,34.7,22.6,30.25,North,355,7.0,17.0,61,0.00,,,0.00,Wunderground v.1.15,2013-11-03 15:38:00,
2013-11-03 10:43:00,35.8,23.3,30.25,WNW,303,11.0,14.0,60,0.00,,,0.00,Wunderground v.1.15,2013-11-03 15:43:00,
2013-11-03 10:48:00,36.2,22.8,30.25,NNW,337,8.0,17.0,58,0.00,,,0.00,Wunderground v.1.15,2013-11-03 15:48:00,
2013-11-03 10:53:00,35.8,23.3,30.25,NNW,331,1.0,13.0,60,0.00,,,0.00,Wunderground v.1.15,2013-11-03 15:53:00,
2013-11-03 10:58:00,35.2,21.5,30.25,NNW,329,9.0,16.0,57,0.00,,,0.00,Wunderground v.1.15,2013-11-03 15:58:00,
2013-11-03 11:03:00,35.3,22.0,30.26,North,5,3.0,17.0,58,0.00,,,0.00,Wunderground v.1.15,2013-11-03 16:03:00,
2013-11-03 11:08:00,36.3,21.7,30.26,NNW,330,4.0,17.0,55,0.00,,,0.00,Wunderground v.1.15,2013-11-03 16:08:00,
2013-11-03 11:13:00,37.2,21.6,30.26,NW,314,3.0,13.0,53,0.00,,,0.00,Wunderground v.1.15,2013-11-03 16:13:00,
2013-11-03 11:18:00,37.5,22.3,30.26,NNW,327,13.0,15.0,54,0.00,,,0.00,Wunderground v.1.15,2013-11-03 16:18:00,
2013-11-03 11:23:00,37.3,21.7,30.26,NNW,336,5.0,21.0,53,0.00,,,0.00,Wunderground v.1.15,2013-11-03 16:23:00,
2013-11-03 11:28:00,37.3,22.6,30.26,NW,315,10.0,21.0,55,0.00,,,0.00,Wunderground v.1.15,2013-11-03 16:28:00,
2013-11-03 11:33:00,37.6,22.0,30.25,NW,326,13.0,15.0,53,0.00,,,0.00,Wunderground v.1.15,2013-11-03 16:33:00,
2013-11-03 11:38:00,37.9,23.6,30.25,North,360,5.0,15.0,56,0.00,,,0.00,Wunderground v.1.15,2013-11-03 16:38:00,
2013-11-03 11:43:00,36.6,19.7,30.25,NNW,348,6.0,18.0,50,0.00,,,0.00,Wunderground v.1.15,2013-11-03 16:43:00,
2013-11-03 11:48:00,35.9,19.5,30.25,NNW,338,13.0,20.0,51,0.00,,,0.00,Wunderground v.1.15,2013-11-03 16:48:00,
2013-11-03 11:53:00,36.0,20.9,30.25,NW,320,3.0,15.0,54,0.00,,,0.00,Wunderground v.1.15,2013-11-03 16:53:00,
2013-11-03 11:58:00,36.6,20.6,30.25,NNW,335,6.0,15.0,52,0.00,,,0.00,Wunderground v.1.15,2013-11-03 16:58:00,
2013-11-03 12:03:00,37.6,22.9,30.25,NNW,339,2.0,9.0,55,0.00,,,0.00,Wunderground v.1.15,2013-11-03 17:03:00,
2013-11-03 12:08:00,38.3,21.3,30.25,NNW,336,7.0,12.0,50,0.00,,,0.00,Wunderground v.1.15,2013-11-03 17:08:00,
2013-11-03 12:13:00,38.3,20.3,30.25,NW,309,9.0,17.0,48,0.00,,,0.00,Wunderground v.1.15,2013-11-03 17:13:00,
2013-11-03 12:19:00,37.8,20.8,30.25,NNW,340,4.0,17.0,50,0.00,,,0.00,Wunderground v.1.15,2013-11-03 17:19:00,
2013-11-03 12:24:00,38.0,19.0,30.25,NNW,327,6.0,15.0,46,0.00,,,0.00,Wunderground v.1.15,2013-11-03 17:24:00,
2013-11-03 12:29:00,38.0,21.0,30.25,NW,311,4.0,15.0,50,0.00,,,0.00,Wunderground v.1.15,2013-11-03 17:29:00,
2013-11-03 12:34:00,38.2,20.7,30.25,NNW,335,7.0,17.0,49,0.00,,,0.00,Wunderground v.1.15,2013-11-03 17:34:00,
2013-11-03 12:40:00,38.3,19.8,30.25,North,10,10.0,17.0,47,0.00,,,0.00,Wunderground v.1.15,2013-11-03 17:40:00,
2013-11-03 12:45:00,37.9,19.4,30.26,NNW,336,5.0,14.0,47,0.00,,,0.00,Wunderground v.1.15,2013-11-03 17:45:00,
2013-11-03 12:50:00,38.6,20.6,30.26,NNW,329,6.0,11.0,48,0.00,,,0.00,Wunderground v.1.15,2013-11-03 17:50:00,
2013-11-03 12:55:00,38.3,19.3,30.26,North,349,12.0,21.0,46,0.00,,,0.00,Wunderground v.1.15,2013-11-03 17:55:00,
2013-11-03 13:00:00,38.3,21.3,30.26,NNW,334,4.0,9.0,50,0.00,,,0.00,Wunderground v.1.15,2013-11-03 18:00:00,
2013-11-03 13:06:00,38.5,19.0,30.26,NW,315,4.0,14.0,45,0.00,,,0.00,Wunderground v.1.15,2013-11-03 18:06:00,
2013-11-03 13:11:00,38.6,20.6,30.26,NNW,343,5.0,12.0,48,0.00,,,0.00,Wunderground v.1.15,2013-11-03 18:11:00,
2013-11-03 13:16:00,39.1,20.0,30.26,NNW,347,11.0,21.0,46,0.00,,,0.00,Wunderground v.1.15,2013-11-03 18:16:00,
2013-11-03 13:21:00,38.2,17.6,30.26,NNW,345,3.0,16.0,43,0.00,,,0.00,Wunderground v.1.15,2013-11-03 18:21:00,
2013-11-03 13:26:00,38.3,19.3,30.26,NW,320,12.0,19.0,46,0.00,,,0.00,Wunderground v.1.15,2013-11-03 18:26:00,
2013-11-03 13:31:00,38.5,20.5,30.27,NW,311,4.0,13.0,48,0.00,,,0.00,Wunderground v.1.15,2013-11-03 18:31:00,
2013-11-03 13:36:00,39.1,21.5,30.27,NNW,340,4.0,13.0,49,0.00,,,0.00,Wunderground v.1.15,2013-11-03 18:36:00,
2013-11-03 13:41:00,38.6,19.6,30.27,NW,306,12.0,15.0,46,0.00,,,0.00,Wunderground v.1.15,2013-11-03 18:41:00,
2013-11-03 13:46:00,39.2,20.1,30.28,NNW,346,11.0,15.0,46,0.00,,,0.00,Wunderground v.1.15,2013-11-03 18:46:00,
2013-11-03 13:52:00,38.8,18.7,30.28,North,355,12.0,12.0,44,0.00,,,0.00,Wunderground v.1.15,2013-11-03 18:52:00,
2013-11-03 13:57:00,38.5,17.9,30.28,NNE,22,12.0,17.0,43,0.00,,,0.00,Wunderground v.1.15,2013-11-03 18:57:00,
2013-11-03 14:02:00,38.2,18.2,30.28,NNW,328,4.0,12.0,44,0.00,,,0.00,Wunderground v.1.15,2013-11-03 19:02:00,
2013-11-03 14:07:00,38.6,19.6,30.28,NNW,333,2.0,18.0,46,0.00,,,0.00,Wunderground v.1.15,2013-11-03 19:07:00,
2013-11-03 14:12:00,38.2,17.6,30.28,North,360,17.0,17.0,43,0.00,,,0.00,Wunderground v.1.15,2013-11-03 19:12:00,
2013-11-03 14:17:00,37.6,18.2,30.29,NNW,344,3.0,18.0,45,0.00,,,0.00,Wunderground v.1.15,2013-11-03 19:17:00,
2013-11-03 14:22:00,38.2,19.7,30.29,North,355,16.0,16.0,47,0.00,,,0.00,Wunderground v.1.15,2013-11-03 19:22:00,
2013-11-03 14:27:00,38.6,18.5,30.29,North,355,11.0,17.0,44,0.00,,,0.00,Wunderground v.1.15,2013-11-03 19:27:00,
2013-11-03 14:32:00,38.6,18.0,30.29,NNE,27,15.0,15.0,43,0.00,,,0.00,Wunderground v.1.15,2013-11-03 19:32:00,
2013-11-03 14:37:00,38.3,18.3,30.29,North,360,6.0,17.0,44,0.00,,,0.00,Wunderground v.1.15,2013-11-03 19:37:00,
2013-11-03 14:43:00,38.2,18.2,30.29,NNW,347,7.0,18.0,44,0.00,,,0.00,Wunderground v.1.15,2013-11-03 19:43:00,
2013-11-03 14:48:00,38.3,18.3,30.31,NNW,339,12.0,18.0,44,0.00,,,0.00,Wunderground v.1.15,2013-11-03 19:48:00,
2013-11-03 14:53:00,38.3,19.8,30.31,North,350,4.0,15.0,47,0.00,,,0.00,Wunderground v.1.15,2013-11-03 19:53:00,
2013-11-03 14:58:00,38.6,19.1,30.31,NNW,337,4.0,15.0,45,0.00,,,0.00,Wunderground v.1.15,2013-11-03 19:58:00,
2013-11-03 15:03:00,38.3,18.8,30.30,NNW,341,5.0,17.0,45,0.00,,,0.00,Wunderground v.1.15,2013-11-03 20:03:00,
2013-11-03 15:08:00,38.3,17.2,30.30,North,355,11.0,17.0,42,0.00,,,0.00,Wunderground v.1.15,2013-11-03 20:08:00,
2013-11-03 15:13:00,38.5,19.0,30.30,North,355,5.0,14.0,45,0.00,,,0.00,Wunderground v.1.15,2013-11-03 20:13:00,
2013-11-03 15:18:00,38.6,18.0,30.31,North,350,12.0,16.0,43,0.00,,,0.00,Wunderground v.1.15,2013-11-03 20:18:00,
2013-11-03 15:23:00,37.9,16.8,30.31,North,355,13.0,16.0,42,0.00,,,0.00,Wunderground v.1.15,2013-11-03 20:23:00,
2013-11-03 15:28:00,37.8,16.7,30.31,NNW,341,4.0,18.0,42,0.00,,,0.00,Wunderground v.1.15,2013-11-03 20:28:00,
2013-11-03 15:33:00,37.9,16.3,30.31,NNE,19,7.0,15.0,41,0.00,,,0.00,Wunderground v.1.15,2013-11-03 20:33:00,
2013-11-03 15:38:00,37.8,17.8,30.31,North,355,8.0,15.0,44,0.00,,,0.00,Wunderground v.1.15,2013-11-03 20:38:00,
2013-11-03 15:43:00,38.0,18.0,30.31,NNW,342,4.0,12.0,44,0.00,,,0.00,Wunderground v.1.15,2013-11-03 20:43:00,
2013-11-03 15:49:00,37.9,16.8,30.32,NNW,341,6.0,15.0,42,0.00,,,0.00,Wunderground v.1.15,2013-11-03 20:49:00,
2013-11-03 15:54:00,37.5,16.5,30.32,North,349,8.0,15.0,42,0.00,,,0.00,Wunderground v.1.15,2013-11-03 20:54:00,
2013-11-03 15:59:00,37.2,16.7,30.33,North,5,5.0,15.0,43,0.00,,,0.00,Wunderground v.1.15,2013-11-03 20:59:00,
2013-11-03 16:04:00,37.0,17.1,30.33,North,5,4.0,15.0,44,0.00,,,0.00,Wunderground v.1.15,2013-11-03 21:04:00,
2013-11-03 16:09:00,37.0,17.6,30.33,North,5,7.0,15.0,45,0.00,,,0.00,Wunderground v.1.15,2013-11-03 21:09:00,
2013-11-03 16:14:00,37.0,18.6,30.33,North,355,1.0,10.0,47,0.00,,,0.00,Wunderground v.1.15,2013-11-03 21:14:00,
2013-11-03 16:19:00,36.6,18.2,30.33,NNW,338,4.0,13.0,47,0.00,,,0.00,Wunderground v.1.15,2013-11-03 21:19:00,
2013-11-03 16:24:00,36.3,18.5,30.33,North,10,6.0,13.0,48,0.00,,,0.00,Wunderground v.1.15,2013-11-03 21:24:00,
2013-11-03 16:30:00,36.0,17.2,30.33,North,350,7.0,14.0,46,0.00,,,0.00,Wunderground v.1.15,2013-11-03 21:30:00,
2013-11-03 16:35:00,35.6,17.3,30.33,North,5,4.0,10.0,47,0.00,,,0.00,Wunderground v.1.15,2013-11-03 21:35:00,
2013-11-03 16:40:00,35.3,17.5,30.33,North,5,3.0,5.0,48,0.00,,,0.00,Wunderground v.1.15,2013-11-03 21:40:00,
2013-11-03 16:45:00,35.0,17.3,30.34,North,355,4.0,13.0,48,0.00,,,0.00,Wunderground v.1.15,2013-11-03 21:45:00,
2013-11-03 16:50:00,34.9,17.7,30.34,North,355,4.0,4.0,49,0.00,,,0.00,Wunderground v.1.15,2013-11-03 21:50:00,
2013-11-03 16:55:00,34.7,17.0,30.34,NNW,343,2.0,13.0,48,0.00,,,0.00,Wunderground v.1.15,2013-11-03 21:55:00,
2013-11-03 17:00:00,34.7,17.5,30.35,North,5,4.0,6.0,49,0.00,,,0.00,Wunderground v.1.15,2013-11-03 22:00:00,
2013-11-03 17:05:00,34.7,17.5,30.35,North,5,6.0,11.0,49,0.00,,,0.00,Wunderground v.1.15,2013-11-03 22:05:00,
2013-11-03 17:10:00,34.9,17.2,30.35,NNE,26,6.0,10.0,48,0.00,,,0.00,Wunderground v.1.15,2013-11-03 22:10:00,
2013-11-03 17:15:00,34.9,17.7,30.35,NNW,345,4.0,11.0,49,0.00,,,0.00,Wunderground v.1.15,2013-11-03 22:15:00,
2013-11-03 17:20:00,34.9,17.2,30.35,NNW,347,0.0,3.0,48,0.00,,,0.00,Wunderground v.1.15,2013-11-03 22:20:00,
2013-11-03 17:25:00,34.9,18.1,30.35,NNW,345,0.0,6.0,50,0.00,,,0.00,Wunderground v.1.15,2013-11-03 22:25:00,
2013-11-03 17:31:00,34.7,17.9,30.36,NNW,345,0.0,2.0,50,0.00,,,0.00,Wunderground v.1.15,2013-11-03 22:31:00,
2013-11-03 17:36:00,34.6,18.8,30.36,NNW,346,5.0,7.0,52,0.00,,,0.00,Wunderground v.1.15,2013-11-03 22:36:00,
2013-11-03 17:41:00,34.6,18.8,30.36,North,349,4.0,6.0,52,0.00,,,0.00,Wunderground v.1.15,2013-11-03 22:41:00,
2013-11-03 17:46:00,34.7,18.4,30.37,NNW,346,2.0,6.0,51,0.00,,,0.00,Wunderground v.1.15,2013-11-03 22:46:00,
2013-11-03 17:51:00,34.7,18.9,30.37,North,355,4.0,6.0,52,0.00,,,0.00,Wunderground v.1.15,2013-11-03 22:51:00,
2013-11-03 17:56:00,34.9,18.1,30.37,North,355,1.0,7.0,50,0.00,,,0.00,Wunderground v.1.15,2013-11-03 22:56:00,
2013-11-03 18:01:00,34.7,18.9,30.37,North,355,0.0,3.0,52,0.00,,,0.00,Wunderground v.1.15,2013-11-03 23:01:00,
2013-11-03 18:06:00,34.6,18.8,30.37,North,355,2.0,4.0,52,0.00,,,0.00,Wunderground v.1.15,2013-11-03 23:06:00,
2013-11-03 18:11:00,34.6,17.8,30.37,North,360,3.0,3.0,50,0.00,,,0.00,Wunderground v.1.15,2013-11-03 23:11:00,
2013-11-03 18:16:00,34.6,17.4,30.38,North,360,3.0,5.0,49,0.00,,,0.00,Wunderground v.1.15,2013-11-03 23:16:00,
2013-11-03 18:21:00,34.3,17.6,30.38,North,360,1.0,1.0,50,0.00,,,0.00,Wunderground v.1.15,2013-11-03 23:21:00,
2013-11-03 18:26:00,34.0,17.3,30.38,North,5,3.0,4.0,50,0.00,,,0.00,Wunderground v.1.15,2013-11-03 23:26:00,
2013-11-03 18:31:00,33.8,17.1,30.39,North,5,0.0,2.0,50,0.00,,,0.00,Wunderground v.1.15,2013-11-03 23:31:00,
2013-11-03 18:37:00,33.7,17.5,30.39,North,5,0.0,2.0,51,0.00,,,0.00,Wunderground v.1.15,2013-11-03 23:37:00,
2013-11-03 18:42:00,33.4,17.6,30.39,North,5,1.0,1.0,52,0.00,,,0.00,Wunderground v.1.15,2013-11-03 23:42:00,
2013-11-03 18:47:00,33.2,17.5,30.39,North,5,1.0,5.0,52,0.00,,,0.00,Wunderground v.1.15,2013-11-03 23:47:00,
2013-11-03 18:52:00,33.4,17.2,30.39,North,5,0.0,2.0,51,0.00,,,0.00,Wunderground v.1.15,2013-11-03 23:52:00,
2013-11-03 18:57:00,33.1,19.1,30.39,North,5,0.0,2.0,56,0.00,,,0.00,Wunderground v.1.15,2013-11-03 23:57:00,
2013-11-03 19:03:00,33.1,19.9,30.40,North,5,0.0,0.0,58,0.00,,,0.00,Wunderground v.1.15,2013-11-04 00:03:00,
2013-11-03 19:08:00,32.8,19.2,30.40,North,5,0.0,1.0,57,0.00,,,0.00,Wunderground v.1.15,2013-11-04 00:08:00,
2013-11-03 19:13:00,32.8,19.2,30.40,North,5,0.0,1.0,57,0.00,,,0.00,Wunderground v.1.15,2013-11-04 00:13:00,
2013-11-03 19:18:00,32.8,18.8,30.40,North,5,3.0,3.0,56,0.00,,,0.00,Wunderground v.1.15,2013-11-04 00:18:00,
2013-11-03 19:23:00,33.1,19.1,30.40,North,5,0.0,2.0,56,0.00,,,0.00,Wunderground v.1.15,2013-11-04 00:23:00,
2013-11-03 19:28:00,33.4,19.4,30.40,North,5,0.0,4.0,56,0.00,,,0.00,Wunderground v.1.15,2013-11-04 00:28:00,
2013-11-03 19:33:00,33.7,19.2,30.41,North,5,0.0,2.0,55,0.00,,,0.00,Wunderground v.1.15,2013-11-04 00:33:00,
2013-11-03 19:38:00,33.7,19.7,30.41,North,5,0.0,3.0,56,0.00,,,0.00,Wunderground v.1.15,2013-11-04 00:38:00,
2013-11-03 19:43:00,33.8,20.2,30.41,North,5,1.0,1.0,57,0.00,,,0.00,Wunderground v.1.15,2013-11-04 00:43:00,
2013-11-03 19:48:00,33.7,20.1,30.42,North,5,0.0,6.0,57,0.00,,,0.00,Wunderground v.1.15,2013-11-04 00:48:00,
2013-11-03 19:53:00,33.8,19.7,30.42,NNW,337,0.0,9.0,56,0.00,,,0.00,Wunderground v.1.15,2013-11-04 00:53:00,
2013-11-03 19:58:00,33.8,19.3,30.42,NW,326,0.0,9.0,55,0.00,,,0.00,Wunderground v.1.15,2013-11-04 00:58:00,
2013-11-03 20:03:00,33.8,19.7,30.42,NNW,328,2.0,11.0,56,0.00,,,0.00,Wunderground v.1.15,2013-11-04 01:03:00,
2013-11-03 20:08:00,33.7,19.7,30.42,NNW,329,1.0,11.0,56,0.00,,,0.00,Wunderground v.1.15,2013-11-04 01:08:00,
2013-11-03 20:13:00,33.5,19.5,30.42,NNW,328,0.0,4.0,56,0.00,,,0.00,Wunderground v.1.15,2013-11-04 01:13:00,
2013-11-03 20:18:00,33.4,19.8,30.42,NNW,328,0.0,4.0,57,0.00,,,0.00,Wunderground v.1.15,2013-11-04 01:18:00,
2013-11-03 20:23:00,33.1,19.5,30.42,NNW,327,0.0,4.0,57,0.00,,,0.00,Wunderground v.1.15,2013-11-04 01:23:00,
2013-11-03 20:28:00,32.9,19.7,30.42,NNW,327,0.0,4.0,58,0.00,,,0.00,Wunderground v.1.15,2013-11-04 01:28:00,
2013-11-03 20:33:00,32.7,19.5,30.43,NNW,327,0.0,3.0,58,0.00,,,0.00,Wunderground v.1.15,2013-11-04 01:33:00,
2013-11-03 20:38:00,32.1,19.8,30.43,NNW,327,0.0,3.0,60,0.00,,,0.00,Wunderground v.1.15,2013-11-04 01:38:00,
2013-11-03 20:43:00,31.3,19.8,30.43,NNW,328,0.0,0.0,62,0.00,,,0.00,Wunderground v.1.15,2013-11-04 01:43:00,
2013-11-03 20:48:00,30.9,19.4,30.43,NNW,328,0.0,0.0,62,0.00,,,0.00,Wunderground v.1.15,2013-11-04 01:48:00,
2013-11-03 20:53:00,30.9,19.0,30.43,NNW,328,0.0,0.0,61,0.00,,,0.00,Wunderground v.1.15,2013-11-04 01:53:00,
2013-11-03 20:58:00,30.9,19.4,30.43,NNW,328,0.0,0.0,62,0.00,,,0.00,Wunderground v.1.15,2013-11-04 01:58:00,
2013-11-03 21:03:00,30.7,19.2,30.43,NNW,328,0.0,0.0,62,0.00,,,0.00,Wunderground v.1.15,2013-11-04 02:03:00,
2013-11-03 21:08:00,30.9,19.0,30.43,NNW,328,0.0,0.0,61,0.00,,,0.00,Wunderground v.1.15,2013-11-04 02:08:00,
2013-11-03 21:13:00,31.0,18.7,30.43,NNW,328,0.0,0.0,60,0.00,,,0.00,Wunderground v.1.15,2013-11-04 02:13:00,
2013-11-03 21:18:00,31.3,18.6,30.44,NNW,328,0.0,0.0,59,0.00,,,0.00,Wunderground v.1.15,2013-11-04 02:18:00,
2013-11-03 21:23:00,31.2,18.9,30.44,NNW,328,0.0,0.0,60,0.00,,,0.00,Wunderground v.1.15,2013-11-04 02:23:00,
2013-11-03 21:28:00,31.0,18.7,30.44,NNW,328,0.0,0.0,60,0.00,,,0.00,Wunderground v.1.15,2013-11-04 02:28:00,
2013-11-03 21:33:00,31.0,18.7,30.45,NNW,328,0.0,0.0,60,0.00,,,0.00,Wunderground v.1.15,2013-11-04 02:33:00,
2013-11-03 21:38:00,30.7,19.2,30.45,NNW,328,0.0,1.0,62,0.00,,,0.00,Wunderground v.1.15,2013-11-04 02:38:00,
2013-11-03 21:43:00,30.7,18.8,30.45,NNW,328,0.0,0.0,61,0.00,,,0.00,Wunderground v.1.15,2013-11-04 02:43:00,
2013-11-03 21:48:00,30.7,18.8,30.45,NNW,328,0.0,1.0,61,0.00,,,0.00,Wunderground v.1.15,2013-11-04 02:48:00,
2013-11-03 21:53:00,31.0,19.1,30.45,NNW,328,0.0,0.0,61,0.00,,,0.00,Wunderground v.1.15,2013-11-04 02:53:00,
2013-11-03 21:58:00,30.9,19.0,30.45,NNW,328,0.0,1.0,61,0.00,,,0.00,Wunderground v.1.15,2013-11-04 02:58:00,
2013-11-03 22:03:00,30.4,18.9,30.45,NNW,328,0.0,1.0,62,0.00,,,0.00,Wunderground v.1.15,2013-11-04 03:03:00,
2013-11-03 22:08:00,30.1,19.0,30.45,NNW,328,0.0,1.0,63,0.00,,,0.00,Wunderground v.1.15,2013-11-04 03:08:00,
2013-11-03 22:13:00,29.5,19.2,30.45,NNW,328,0.0,1.0,65,0.00,,,0.00,Wunderground v.1.15,2013-11-04 03:13:00,
2013-11-03 22:18:00,29.0,19.4,30.45,NNW,328,0.0,1.0,67,0.00,,,0.00,Wunderground v.1.15,2013-11-04 03:18:00,
2013-11-03 22:24:00,28.8,19.2,30.45,NNW,327,0.0,1.0,67,0.00,,,0.00,Wunderground v.1.15,2013-11-04 03:24:00,
2013-11-03 22:29:00,28.7,19.5,30.46,NNW,328,0.0,1.0,68,0.00,,,0.00,Wunderground v.1.15,2013-11-04 03:29:00,
2013-11-03 22:34:00,28.4,19.2,30.46,NNW,328,0.0,0.0,68,0.00,,,0.00,Wunderground v.1.15,2013-11-04 03:34:00,
2013-11-03 22:39:00,28.1,19.2,30.46,NNW,328,0.0,1.0,69,0.00,,,0.00,Wunderground v.1.15,2013-11-04 03:39:00,
2013-11-03 22:44:00,28.2,19.3,30.46,NNW,328,0.0,0.0,69,0.00,,,0.00,Wunderground v.1.15,2013-11-04 03:44:00,
2013-11-03 22:49:00,28.2,19.3,30.46,NNW,328,0.0,0.0,69,0.00,,,0.00,Wunderground v.1.15,2013-11-04 03:49:00,
2013-11-03 22:54:00,28.1,19.6,30.46,NNW,328,0.0,0.0,70,0.00,,,0.00,Wunderground v.1.15,2013-11-04 03:54:00,
2013-11-03 22:59:00,27.8,19.3,30.47,NNW,327,0.0,0.0,70,0.00,,,0.00,Wunderground v.1.15,2013-11-04 03:59:00,
2013-11-03 23:04:00,27.6,19.1,30.47,NNW,328,0.0,0.0,70,0.00,,,0.00,Wunderground v.1.15,2013-11-04 04:04:00,
2013-11-03 23:09:00,27.6,19.4,30.47,NNW,328,0.0,0.0,71,0.00,,,0.00,Wunderground v.1.15,2013-11-04 04:09:00,
2013-11-03 23:14:00,27.8,19.3,30.47,NNW,328,1.0,1.0,70,0.00,,,0.00,Wunderground v.1.15,2013-11-04 04:14:00,
2013-11-03 23:20:00,28.2,19.3,30.47,NNW,328,0.0,0.0,69,0.00,,,0.00,Wunderground v.1.15,2013-11-04 04:20:00,
2013-11-03 23:25:00,28.5,19.6,30.47,NNW,328,0.0,0.0,69,0.00,,,0.00,Wunderground v.1.15,2013-11-04 04:25:00,
2013-11-03 23:30:00,28.2,20.0,30.48,NNW,327,0.0,0.0,71,0.00,,,0.00,Wunderground v.1.15,2013-11-04 04:30:00,
2013-11-03 23:35:00,27.6,19.8,30.48,NNW,328,0.0,0.0,72,0.00,,,0.00,Wunderground v.1.15,2013-11-04 04:35:00,
2013-11-03 23:40:00,27.3,19.8,30.48,NNW,327,0.0,0.0,73,0.00,,,0.00,Wunderground v.1.15,2013-11-04 04:40:00,
2013-11-03 23:46:00,27.0,19.8,30.49,NNW,328,0.0,0.0,74,0.00,,,0.00,Wunderground v.1.15,2013-11-04 04:46:00,
2013-11-03 23:51:00,26.9,20.0,30.49,NNW,327,0.0,0.0,75,0.00,,,0.00,Wunderground v.1.15,2013-11-04 04:51:00,
2013-11-03 23:56:00,26.9,20.0,30.49,NNW,328,0.0,0.0,75,0.00,,,0.00,Wunderground v.1.15,2013-11-04 04:56:00,